createdAt,value
2023-05-11T00:01:38.907Z,9.72
2023-05-11T00:04:44.431Z,9.78
2023-05-11T00:07:50.938Z,9.79
2023-05-11T00:10:56.120Z,9.88
2023-05-11T00:14:01.126Z,9.73
2023-05-11T00:17:06.314Z,9.68
2023-05-11T00:20:12.698Z,9.72
2023-05-11T00:23:19.152Z,9.62
2023-05-11T00:26:24.171Z,9.50
2023-05-11T00:29:29.575Z,9.61
2023-05-11T00:32:34.776Z,9.47
2023-05-11T00:35:39.864Z,9.56
2023-05-11T00:38:46.560Z,9.54
2023-05-11T00:41:51.627Z,9.34
2023-05-11T00:44:56.715Z,9.44
2023-05-11T00:48:02.100Z,9.33
2023-05-11T00:51:08.313Z,9.46
2023-05-11T00:54:15.838Z,9.34
2023-05-11T00:57:21.399Z,9.40
2023-05-11T01:00:26.924Z,9.39
2023-05-11T01:03:32.091Z,9.38
2023-05-11T01:06:44.783Z,9.34
2023-05-11T01:10:00.888Z,9.28
2023-05-11T01:13:12.240Z,9.21
2023-05-11T01:16:21.581Z,9.37
2023-05-11T01:19:41.999Z,9.23
2023-05-11T01:23:08.962Z,9.33
2023-05-11T01:26:36.236Z,9.25
2023-05-11T01:29:57.915Z,9.30
2023-05-11T01:33:09.205Z,9.35
2023-05-11T01:36:15.594Z,9.30
2023-05-11T01:39:23.783Z,9.17
2023-05-11T01:42:37.042Z,9.28
2023-05-11T01:45:44.993Z,9.30
2023-05-11T01:48:54.294Z,9.32
2023-05-11T01:52:01.232Z,9.31
2023-05-11T01:55:08.018Z,9.29
2023-05-11T01:58:16.456Z,9.36
2023-05-11T02:01:21.921Z,9.35
2023-05-11T02:04:30.509Z,9.34
2023-05-11T02:07:37.443Z,9.36
2023-05-11T02:10:43.245Z,9.35
2023-05-11T02:13:49.724Z,9.32
2023-05-11T02:16:55.117Z,9.33
2023-05-11T02:20:02.710Z,9.40
2023-05-11T02:23:12.785Z,9.42
2023-05-11T02:26:18.208Z,9.44
2023-05-11T02:29:23.339Z,9.52
2023-05-11T02:32:30.076Z,9.51
2023-05-11T02:35:39.761Z,9.54
2023-05-11T02:38:45.971Z,9.64
2023-05-11T02:41:56.533Z,9.68
2023-05-11T02:45:03.903Z,9.63
2023-05-11T02:48:12.804Z,9.66
2023-05-11T02:51:20.455Z,9.63
2023-05-11T02:54:28.659Z,9.67
2023-05-11T02:57:34.095Z,9.66
2023-05-11T03:00:44.722Z,9.63
2023-05-11T03:03:50.171Z,9.66
2023-05-11T03:06:57.860Z,9.67
2023-05-11T03:10:03.301Z,9.65
2023-05-11T03:13:16.727Z,9.63
2023-05-11T03:16:23.076Z,9.69
2023-05-11T03:19:29.245Z,9.76
2023-05-11T03:22:37.541Z,9.82
2023-05-11T03:25:43.754Z,9.86
2023-05-11T03:28:49.505Z,9.97
2023-05-11T03:31:55.321Z,9.90
2023-05-11T03:35:01.868Z,10.00
2023-05-11T03:38:08.569Z,10.02
2023-05-11T03:41:17.580Z,10.08
2023-05-11T03:44:28.078Z,10.15
2023-05-11T03:47:35.518Z,10.18
2023-05-11T03:50:41.108Z,10.23
2023-05-11T03:53:47.756Z,10.27
2023-05-11T03:56:53.340Z,10.26
2023-05-11T03:59:58.728Z,10.33
2023-05-11T04:03:06.925Z,10.36
2023-05-11T04:06:12.248Z,10.40
2023-05-11T04:09:18.869Z,10.51
2023-05-11T04:12:23.994Z,10.53
2023-05-11T04:15:31.211Z,10.57
2023-05-11T04:18:36.430Z,10.63
2023-05-11T04:21:41.552Z,10.75
2023-05-11T04:24:48.837Z,10.73
2023-05-11T04:27:53.952Z,10.91
2023-05-11T04:30:59.360Z,10.97
2023-05-11T04:34:04.281Z,11.00
2023-05-11T04:37:11.894Z,11.07
2023-05-11T04:40:20.222Z,11.09
2023-05-11T04:43:26.986Z,11.22
2023-05-11T04:46:32.193Z,11.31
2023-05-11T04:49:37.510Z,11.32
2023-05-11T04:52:42.895Z,11.41
2023-05-11T04:55:49.446Z,11.42
2023-05-11T04:58:54.670Z,11.44
2023-05-11T05:01:59.765Z,11.62
2023-05-11T05:05:05.099Z,11.80
2023-05-11T05:08:10.268Z,11.88
2023-05-11T05:11:17.957Z,12.05
2023-05-11T05:14:25.761Z,12.11
2023-05-11T05:17:31.687Z,12.19
2023-05-11T05:20:36.761Z,12.28
2023-05-11T05:23:42.031Z,12.34
2023-05-11T05:26:48.539Z,12.47
2023-05-11T05:29:53.626Z,12.57
2023-05-11T05:32:59.624Z,12.59
2023-05-11T05:36:05.228Z,12.75
2023-05-11T05:39:12.712Z,12.85
2023-05-11T05:42:20.282Z,13.01
2023-05-11T05:45:26.053Z,13.14
2023-05-11T05:48:31.674Z,13.25
2023-05-11T05:51:37.598Z,13.43
2023-05-11T05:54:52.491Z,13.60
2023-05-11T05:57:59.043Z,13.76
2023-05-11T06:01:04.184Z,13.90
2023-05-11T06:04:09.894Z,14.07
2023-05-11T06:07:15.625Z,14.15
2023-05-11T06:10:20.893Z,14.29
2023-05-11T06:13:27.670Z,14.45
2023-05-11T06:16:32.853Z,14.57
2023-05-11T06:19:38.674Z,14.69
2023-05-11T06:22:43.729Z,14.82
2023-05-11T06:25:49.630Z,15.10
2023-05-11T06:28:56.667Z,15.18
2023-05-11T06:32:03.186Z,15.26
2023-05-11T06:35:11.664Z,15.24
2023-05-11T06:38:17.420Z,15.34
2023-05-11T06:41:22.740Z,15.45
2023-05-11T06:44:29.389Z,15.61
2023-05-11T06:47:36.723Z,15.59
2023-05-11T06:50:42.060Z,15.70
2023-05-11T06:53:51.010Z,15.76
2023-05-11T06:56:56.064Z,15.90
2023-05-11T07:00:02.513Z,15.96
2023-05-11T07:03:08.124Z,16.14
2023-05-11T07:06:13.885Z,16.15
2023-05-11T07:09:19.078Z,16.12
2023-05-11T07:12:24.954Z,16.28
2023-05-11T07:15:31.504Z,16.50
2023-05-11T07:18:36.632Z,16.51
2023-05-11T07:21:43.885Z,16.56
2023-05-11T07:24:48.950Z,16.64
2023-05-11T07:27:54.101Z,16.59
2023-05-11T07:31:00.690Z,16.77
2023-05-11T07:34:05.874Z,16.89
2023-05-11T07:37:12.312Z,16.97
2023-05-11T07:40:17.910Z,17.07
2023-05-11T07:43:23.260Z,17.24
2023-05-11T07:46:29.845Z,17.31
2023-05-11T07:49:42.809Z,17.29
2023-05-11T07:52:49.418Z,17.32
2023-05-11T07:55:54.602Z,17.29
2023-05-11T07:58:59.620Z,17.35
2023-05-11T08:02:06.855Z,17.53
2023-05-11T08:05:12.603Z,17.62
2023-05-11T08:08:18.033Z,17.53
2023-05-11T08:11:24.235Z,17.53
2023-05-11T08:14:29.510Z,17.61
2023-05-11T08:17:36.583Z,17.71
2023-05-11T08:20:42.312Z,17.77
2023-05-11T08:23:47.368Z,17.84
2023-05-11T08:26:52.412Z,17.82
2023-05-11T08:29:58.544Z,17.77
2023-05-11T08:33:17.640Z,17.82
2023-05-11T08:36:30.195Z,17.90
2023-05-11T08:39:46.778Z,18.02
2023-05-11T08:42:55.836Z,18.07
2023-05-11T08:46:05.162Z,18.17
2023-05-11T08:49:14.585Z,18.15
2023-05-11T08:52:20.655Z,18.35
2023-05-11T08:55:28.622Z,18.30
2023-05-11T08:58:34.643Z,18.46
2023-05-11T09:01:41.929Z,18.48
2023-05-11T09:04:49.365Z,18.53
2023-05-11T09:07:58.247Z,18.61
2023-05-11T09:11:03.622Z,18.63
2023-05-11T09:14:08.709Z,18.73
2023-05-11T09:17:14.300Z,18.74
2023-05-11T09:20:28.320Z,18.86
2023-05-11T09:23:34.500Z,18.79
2023-05-11T09:26:39.698Z,18.87
2023-05-11T09:32:58.258Z,18.84
2023-05-11T09:36:06.008Z,18.85
2023-05-11T09:42:20.991Z,18.82
2023-05-11T09:45:42.124Z,18.91
2023-05-11T09:48:47.245Z,18.95
2023-05-11T09:52:02.788Z,18.81
2023-05-11T09:55:12.707Z,19.00
2023-05-11T09:58:17.852Z,19.01
2023-05-11T10:01:32.390Z,19.14
2023-05-11T10:04:37.544Z,19.14
2023-05-11T10:07:43.963Z,19.15
2023-05-11T10:10:49.315Z,19.12
2023-05-11T10:13:55.222Z,19.22
2023-05-11T10:17:00.559Z,19.25
2023-05-11T10:20:06.988Z,19.19
2023-05-11T10:23:17.759Z,19.16
2023-05-11T10:26:23.003Z,19.14
2023-05-11T10:29:28.663Z,19.30
2023-05-11T10:32:37.462Z,19.41
2023-05-11T10:35:42.967Z,19.28
2023-05-11T10:38:49.215Z,19.19
2023-05-11T10:42:06.083Z,19.16
2023-05-11T10:45:23.892Z,19.23
2023-05-11T10:48:44.087Z,19.31
2023-05-11T10:52:05.564Z,19.37
2023-05-11T10:55:21.678Z,19.51
2023-05-11T10:58:35.334Z,19.47
2023-05-11T11:01:41.831Z,19.67
2023-05-11T11:04:48.178Z,19.52
2023-05-11T11:08:00.330Z,19.58
2023-05-11T11:11:29.530Z,19.59
2023-05-11T11:14:55.188Z,19.50
2023-05-11T11:18:21.253Z,19.56
2023-05-11T11:21:42.754Z,19.67
2023-05-11T11:24:48.795Z,19.64
2023-05-11T11:28:00.198Z,19.59
2023-05-11T11:31:26.809Z,19.71
2023-05-11T11:34:39.133Z,19.88
2023-05-11T11:38:02.189Z,20.00
2023-05-11T11:41:10.121Z,19.97
2023-05-11T11:44:24.463Z,19.92
2023-05-11T11:47:29.649Z,19.99
2023-05-11T11:50:35.348Z,19.93
2023-05-11T11:54:07.895Z,20.02
2023-05-11T11:57:49.213Z,19.98
2023-05-11T12:00:57.076Z,19.98
2023-05-11T12:04:33.503Z,20.14
2023-05-11T12:07:42.779Z,20.08
2023-05-11T12:10:49.714Z,20.11
2023-05-11T12:13:55.363Z,20.23
2023-05-11T12:17:16.517Z,20.12
2023-05-11T12:20:22.825Z,20.16
2023-05-11T12:23:28.762Z,20.19
2023-05-11T12:26:35.852Z,20.23
2023-05-11T12:29:41.547Z,20.18
2023-05-11T12:32:48.250Z,20.28
2023-05-11T12:35:54.707Z,20.24
2023-05-11T12:38:59.991Z,20.17
2023-05-11T12:42:05.501Z,20.24
2023-05-11T12:45:12.727Z,20.31
2023-05-11T12:48:19.136Z,20.25
2023-05-11T12:51:53.178Z,20.31
2023-05-11T12:55:00.146Z,20.31
2023-05-11T12:58:14.188Z,20.21
2023-05-11T13:01:26.450Z,20.33
2023-05-11T13:04:33.321Z,20.32
2023-05-11T13:07:38.473Z,20.37
2023-05-11T13:10:43.564Z,20.25
2023-05-11T13:13:48.664Z,20.35
2023-05-11T13:16:56.951Z,20.35
2023-05-11T13:23:32.570Z,20.57
2023-05-11T13:26:37.848Z,20.36
2023-05-11T13:29:43.006Z,20.33
2023-05-11T13:32:48.054Z,20.16
2023-05-11T13:35:53.221Z,20.37
2023-05-11T13:38:59.679Z,20.40
2023-05-11T13:42:05.087Z,20.33
2023-05-11T13:45:12.018Z,20.36
2023-05-11T13:48:35.444Z,20.43
2023-05-11T13:51:40.507Z,20.60
2023-05-11T13:54:47.088Z,20.27
2023-05-11T13:57:52.656Z,20.41
2023-05-11T14:01:08.081Z,20.57
2023-05-11T14:04:13.891Z,20.80
2023-05-11T14:07:18.982Z,20.60
2023-05-11T14:10:26.011Z,20.69
2023-05-11T14:13:33.296Z,20.31
2023-05-11T14:16:38.584Z,20.37
2023-05-11T14:19:44.135Z,20.40
2023-05-11T14:22:49.516Z,20.31
2023-05-11T14:25:55.728Z,20.52
2023-05-11T14:29:00.981Z,20.33
2023-05-11T14:32:06.565Z,20.37
2023-05-11T14:35:13.089Z,20.35
2023-05-11T14:38:18.387Z,20.16
2023-05-11T14:41:25.669Z,19.97
2023-05-11T14:44:31.392Z,19.98
2023-05-11T14:47:36.853Z,19.98
2023-05-11T14:50:43.099Z,19.70
2023-05-11T14:53:48.215Z,19.74
2023-05-11T14:56:56.647Z,19.85
2023-05-11T15:00:03.070Z,19.70
2023-05-11T15:03:10.763Z,19.68
2023-05-11T15:06:21.248Z,19.56
2023-05-11T15:09:26.444Z,19.35
2023-05-11T15:12:33.025Z,19.44
2023-05-11T15:15:38.432Z,19.38
2023-05-11T15:18:45.184Z,19.42
2023-05-11T15:21:50.270Z,19.41
2023-05-11T15:24:56.095Z,19.41
2023-05-11T15:28:02.633Z,19.52
2023-05-11T15:31:07.711Z,19.49
2023-05-11T15:34:13.636Z,19.57
2023-05-11T15:37:18.784Z,19.46
2023-05-11T15:40:24.474Z,19.31
2023-05-11T15:43:30.879Z,19.41
2023-05-11T15:46:36.831Z,19.32
2023-05-11T15:49:41.922Z,19.15
2023-05-11T15:52:47.033Z,19.17
2023-05-11T15:55:55.401Z,19.21
2023-05-11T15:59:02.218Z,19.04
2023-05-11T16:02:07.777Z,19.16
2023-05-11T16:05:13.644Z,19.16
2023-05-11T16:08:18.950Z,18.94
2023-05-11T16:11:24.226Z,19.07
2023-05-11T16:14:32.876Z,19.00
2023-05-11T16:17:38.486Z,18.98
2023-05-11T16:20:43.641Z,18.74
2023-05-11T16:23:48.708Z,18.67
2023-05-11T16:26:53.848Z,18.70
2023-05-11T16:30:04.005Z,18.54
2023-05-11T16:33:15.365Z,18.49
2023-05-11T16:36:21.185Z,18.36
2023-05-11T16:39:26.831Z,18.29
2023-05-11T16:42:32.299Z,18.20
2023-05-11T16:45:38.863Z,18.28
2023-05-11T16:48:44.112Z,18.17
2023-05-11T16:51:49.425Z,18.03
2023-05-11T16:54:55.742Z,17.88
2023-05-11T16:58:03.192Z,17.82
2023-05-11T17:01:09.786Z,17.87
2023-05-11T17:04:15.238Z,17.80
2023-05-11T17:07:20.340Z,17.64
2023-05-11T17:10:25.756Z,17.66
2023-05-11T17:13:30.982Z,17.60
2023-05-11T17:16:37.607Z,17.60
2023-05-11T17:19:43.383Z,17.66
2023-05-11T17:22:49.259Z,17.68
2023-05-11T17:25:55.032Z,17.52
2023-05-11T17:29:00.304Z,17.61
2023-05-11T17:32:07.295Z,17.41
2023-05-11T17:35:13.152Z,17.33
2023-05-11T17:38:18.235Z,17.37
2023-05-11T17:41:23.507Z,17.38
2023-05-11T17:44:31.610Z,17.38
2023-05-11T17:47:38.150Z,17.21
2023-05-11T17:50:43.365Z,17.14
2023-05-11T17:53:49.852Z,17.08
2023-05-11T17:56:54.929Z,16.93
2023-05-11T18:00:00.276Z,16.85
2023-05-11T18:03:07.052Z,16.80
2023-05-11T18:06:12.758Z,16.74
2023-05-11T18:09:18.910Z,16.58
2023-05-11T18:12:24.224Z,16.41
2023-05-11T18:15:29.366Z,16.41
2023-05-11T18:18:36.177Z,16.39
2023-05-11T18:21:41.583Z,16.25
2023-05-11T18:24:46.788Z,16.24
2023-05-11T18:27:52.145Z,16.01
2023-05-11T18:30:57.407Z,16.05
2023-05-11T18:34:04.366Z,15.97
2023-05-11T18:37:10.734Z,15.68
2023-05-11T18:40:15.781Z,15.72
2023-05-11T18:43:21.127Z,15.67
2023-05-11T18:46:26.326Z,15.48
2023-05-11T18:49:32.982Z,15.61
2023-05-11T18:52:40.519Z,15.40
2023-05-11T18:55:53.109Z,15.44
2023-05-11T18:58:59.067Z,15.21
2023-05-11T19:02:04.651Z,15.05
2023-05-11T19:05:14.000Z,15.06
2023-05-11T19:08:19.188Z,14.90
2023-05-11T19:11:24.217Z,14.69
2023-05-11T19:14:29.673Z,14.70
2023-05-11T19:17:35.188Z,14.85
2023-05-11T19:20:41.767Z,14.75
2023-05-11T19:23:48.621Z,14.70
2023-05-11T19:27:05.728Z,14.60
2023-05-11T19:30:12.655Z,14.49
2023-05-11T19:33:19.234Z,14.41
2023-05-11T19:36:25.872Z,14.34
2023-05-11T19:39:31.030Z,14.20
2023-05-11T19:42:39.742Z,14.19
2023-05-11T19:45:46.501Z,14.11
2023-05-11T19:48:51.620Z,14.01
2023-05-11T19:51:58.106Z,14.11
2023-05-11T19:55:03.313Z,14.05
2023-05-11T19:58:08.581Z,14.11
2023-05-11T20:01:14.200Z,14.05
2023-05-11T20:04:19.342Z,13.98
2023-05-11T20:07:26.252Z,13.81
2023-05-11T20:10:31.329Z,13.78
2023-05-11T20:13:36.392Z,13.76
2023-05-11T20:16:41.702Z,13.57
2023-05-11T20:19:46.919Z,13.68
2023-05-11T20:22:53.524Z,13.51
2023-05-11T20:25:59.137Z,13.40
2023-05-11T20:29:04.257Z,13.45
2023-05-11T20:32:09.772Z,13.33
2023-05-11T20:35:14.967Z,13.36
2023-05-11T20:38:21.642Z,13.20
2023-05-11T20:41:27.617Z,13.26
2023-05-11T20:44:32.699Z,13.12
2023-05-11T20:47:38.048Z,13.22
2023-05-11T20:50:43.089Z,13.13
2023-05-11T20:53:49.513Z,13.16
2023-05-11T20:56:55.057Z,13.02
2023-05-11T21:00:04.373Z,13.09
2023-05-11T21:03:13.933Z,12.96
2023-05-11T21:06:19.316Z,12.97
2023-05-11T21:09:26.406Z,12.91
2023-05-11T21:12:31.716Z,12.83
2023-05-11T21:15:36.768Z,12.76
2023-05-11T21:18:42.676Z,12.71
2023-05-11T21:21:49.571Z,12.78
2023-05-11T21:24:56.227Z,12.81
2023-05-11T21:28:02.163Z,12.71
2023-05-11T21:31:07.368Z,12.71
2023-05-11T21:34:13.087Z,12.59
2023-05-11T21:37:20.289Z,12.54
2023-05-11T21:40:26.719Z,12.51
2023-05-11T21:43:33.085Z,12.48
2023-05-11T21:46:38.284Z,12.63
2023-05-11T21:49:43.445Z,12.49
2023-05-11T21:52:48.592Z,12.29
2023-05-11T21:55:55.119Z,12.23
2023-05-11T21:59:00.208Z,12.00
2023-05-11T22:02:05.490Z,11.97
2023-05-11T22:05:13.261Z,12.06
2023-05-11T22:08:18.313Z,12.00
2023-05-11T22:11:24.814Z,12.05
2023-05-11T22:14:30.552Z,12.11
2023-05-11T22:17:35.892Z,12.17
2023-05-11T22:20:40.993Z,11.97
2023-05-11T22:23:46.136Z,11.87
2023-05-11T22:26:53.484Z,11.63
2023-05-11T22:29:58.707Z,11.73
2023-05-11T22:33:04.013Z,11.72
2023-05-11T22:36:09.909Z,11.66
2023-05-11T22:39:15.203Z,11.60
2023-05-11T22:42:21.874Z,11.60
2023-05-11T22:45:26.899Z,11.55
2023-05-11T22:48:32.081Z,11.50
2023-05-11T22:51:37.358Z,11.51
2023-05-11T22:54:42.401Z,11.48
2023-05-11T22:57:49.535Z,11.51
2023-05-11T23:00:56.498Z,11.54
2023-05-11T23:04:02.057Z,11.35
2023-05-11T23:07:07.968Z,11.34
2023-05-11T23:10:14.283Z,11.24
2023-05-11T23:13:20.941Z,11.25
2023-05-11T23:16:26.166Z,11.32
2023-05-11T23:19:31.382Z,11.29
2023-05-11T23:22:36.540Z,10.92
2023-05-11T23:25:41.679Z,10.93
2023-05-11T23:28:48.188Z,11.05
2023-05-11T23:31:53.822Z,11.04
2023-05-11T23:34:58.872Z,10.90
2023-05-11T23:38:04.546Z,11.22
2023-05-11T23:41:10.447Z,10.97
2023-05-11T23:44:17.561Z,10.92
2023-05-11T23:47:23.557Z,10.92
2023-05-11T23:50:28.699Z,10.83
2023-05-11T23:53:33.905Z,10.68
2023-05-11T23:56:39.087Z,10.61
2023-05-11T23:59:46.254Z,10.67
